Time;durP1;ratioP1;P1;durP2;ratioP2;P2;SDS_P1;SDS_P2;PMS_P1;PMS_P2;Temp;Humidity;BMP_temperature;BMP_pressure;BME280_temperature;BME280_humidity;BME280_pressure;Samples;Min_cycle;Max_cycle;Signal;HPM_P1;HPM_P2
2023/08/21 00:01:50;;;;;;;;;3.00;2.00;;;;;24.57;58.60;101558.72;5016427;28;45482;-85
2023/08/21 00:04:15;;;;;;;;;1.50;1.50;;;;;24.49;58.86;101564.34;4998582;28;47025;-84
2023/08/21 00:06:41;;;;;;;;;0.50;0.50;;;;;24.51;58.95;101557.06;4999247;28;45437;-84
2023/08/21 00:09:06;;;;;;;;;1.50;1.50;;;;;24.52;58.71;101564.28;4999289;28;45133;-84
2023/08/21 00:11:32;;;;;;;;;2.25;2.25;;;;;24.53;58.44;101556.06;5016267;28;45415;-80
2023/08/21 00:13:58;;;;;;;;;1.25;1.25;;;;;24.55;58.66;101554.19;5001254;28;45163;-81
2023/08/21 00:16:24;;;;;;;;;2.25;2.00;;;;;24.47;58.72;101536.31;5001883;28;44797;-80
2023/08/21 00:18:49;;;;;;;;;1.50;1.50;;;;;24.46;58.83;101542.69;5017775;28;44825;-81
2023/08/21 00:21:19;;;;;;;;;2.00;2.00;;;;;24.53;58.54;101544.31;5003304;28;45317;-80
2023/08/21 00:23:46;;;;;;;;;1.50;1.50;;;;;24.44;58.55;101545.47;5003080;28;45121;-80
2023/08/21 00:26:11;;;;;;;;;0.50;0.50;;;;;24.46;58.35;101538.16;5001149;28;44868;-81
2023/08/21 00:28:37;;;;;;;;;6.33;5.33;;;;;24.48;58.64;101541.72;5018759;28;44840;-81
2023/08/21 00:31:04;;;;;;;;;2.25;2.25;;;;;24.52;58.18;101554.31;5003152;28;44834;-79
2023/08/21 00:33:31;;;;;;;;;4.00;1.75;;;;;24.52;58.87;101543.44;5017745;28;47921;-81
2023/08/21 00:35:57;;;;;;;;;3.00;2.00;;;;;24.49;57.91;101546.19;5017098;28;44817;-82
2023/08/21 00:38:24;;;;;;;;;0.50;0.50;;;;;24.51;58.65;101548.91;5001093;28;44774;-81
2023/08/21 00:40:50;;;;;;;;;1.00;1.00;;;;;24.35;58.67;101543.91;5001291;28;44981;-80
2023/08/21 00:43:16;;;;;;;;;1.25;1.25;;;;;24.36;58.36;101550.25;5016766;28;47489;-80
2023/08/21 00:45:43;;;;;;;;;2.75;0.50;;;;;24.39;58.58;101551.97;4998859;28;44840;-81
2023/08/21 00:48:11;;;;;;;;;3.00;3.00;;;;;24.36;58.89;101544.81;5000628;28;45469;-80
2023/08/21 00:54:28;;;;;;;;;2.25;2.00;;;;;24.46;58.25;101531.81;5000439;28;45163;-80
2023/08/21 00:56:53;;;;;;;;;0.50;0.50;;;;;24.35;58.72;101534.88;5000902;28;44830;-80
2023/08/21 00:59:23;;;;;;;;;2.00;2.00;;;;;24.39;58.30;101542.00;5001379;28;44840;-79
2023/08/21 01:01:48;;;;;;;;;1.25;1.00;;;;;24.29;58.64;101540.50;5001767;28;45516;-80
2023/08/21 01:04:13;;;;;;;;;2.75;2.00;;;;;24.28;59.00;101546.84;5000822;28;47423;-80
2023/08/21 01:06:39;;;;;;;;;0.00;0.00;;;;;24.27;58.36;101550.50;5002118;28;45049;-80
2023/08/21 01:09:24;;;;;;;;;1.25;1.25;;;;;24.32;58.70;101552.16;4984635;28;44896;-79
2023/08/21 01:12:07;;;;;;;;;1.00;1.00;;;;;24.27;58.18;101548.69;4984565;28;45515;-80
2023/08/21 01:14:44;;;;;;;;;3.25;2.00;;;;;24.21;59.04;101556.13;5001474;28;45090;-80
2023/08/21 01:17:15;;;;;;;;;2.50;1.25;;;;;24.08;59.17;101545.63;5001856;28;44825;-80
2023/08/21 01:19:42;;;;;;;;;3.00;2.00;;;;;24.08;59.20;101553.78;5000725;28;44845;-81
2023/08/21 01:22:08;;;;;;;;;1.25;1.25;;;;;24.05;58.70;101553.84;4984411;28;44903;-81
2023/08/21 01:24:34;;;;;;;;;1.50;1.50;;;;;23.98;58.94;101554.09;5001751;28;45028;-81
2023/08/21 01:27:00;;;;;;;;;3.00;3.00;;;;;23.92;59.38;101564.19;5002437;28;44915;-80
2023/08/21 01:29:25;;;;;;;;;1.75;1.75;;;;;23.74;59.37;101552.00;5002164;28;44901;-80
2023/08/21 01:32:06;;;;;;;;;3.00;2.00;;;;;23.80;59.25;101547.38;5001838;28;44841;-80
2023/08/21 01:34:33;;;;;;;;;1.75;1.75;;;;;23.69;59.43;101544.91;4999854;28;46892;-80
2023/08/21 01:37:00;;;;;;;;;3.00;2.00;;;;;23.68;59.79;101549.44;5001779;28;44838;-80
2023/08/21 01:39:27;;;;;;;;;2.25;2.25;;;;;23.70;59.69;101558.44;4986774;28;45022;-81
2023/08/21 01:41:52;;;;;;;;;4.00;3.00;;;;;23.64;59.80;101553.19;5002453;28;45380;-80
2023/08/21 01:44:18;;;;;;;;;1.00;1.00;;;;;23.68;59.75;101560.31;5001947;28;45614;-80
2023/08/21 01:46:43;;;;;;;;;2.25;2.25;;;;;23.65;59.88;101554.97;4984608;28;44905;-79
2023/08/21 01:49:09;;;;;;;;;3.00;2.00;;;;;23.71;59.98;101564.75;4984717;28;44960;-79
2023/08/21 01:51:34;;;;;;;;;3.00;3.00;;;;;23.70;60.01;101566.59;5003057;28;44831;-81
2023/08/21 01:53:59;;;;;;;;;2.00;2.00;;;;;23.62;60.13;101556.88;5018304;28;46742;-80
2023/08/21 01:56:25;;;;;;;;;3.25;3.25;;;;;23.64;60.42;101565.88;5003895;28;44799;-80
2023/08/21 01:58:50;;;;;;;;;3.00;2.25;;;;;23.59;59.88;101560.53;5002213;28;44773;-79
2023/08/21 02:01:17;;;;;;;;;2.50;1.00;;;;;23.57;60.25;101559.69;5001574;28;44902;-80
2023/08/21 02:03:45;;;;;;;;;3.00;3.00;;;;;23.57;60.26;101551.56;5002713;28;45337;-81
2023/08/21 02:06:11;;;;;;;;;2.00;1.50;;;;;23.53;60.60;101560.72;5018654;28;45486;-79
2023/08/21 02:08:36;;;;;;;;;2.25;2.00;;;;;23.55;60.48;101561.56;5003302;28;45353;-80
2023/08/21 02:11:02;;;;;;;;;2.00;2.00;;;;;23.49;60.91;101548.16;5003910;28;45251;-80
2023/08/21 02:13:27;;;;;;;;;2.00;2.00;;;;;23.46;60.63;101540.13;5002110;28;45266;-80
2023/08/21 02:16:30;;;;;;;;;4.00;4.00;;;;;23.62;60.54;101555.03;5004275;28;44889;-79
2023/08/21 02:18:56;;;;;;;;;2.75;1.75;;;;;23.51;60.78;101549.00;5002635;28;45512;-80
2023/08/21 02:21:22;;;;;;;;;3.00;3.00;;;;;23.51;60.97;101549.00;5003652;28;44885;-80
2023/08/21 02:23:48;;;;;;;;;3.75;3.00;;;;;23.48;60.66;101546.38;5017757;28;46707;-81
2023/08/21 02:26:13;;;;;;;;;4.00;2.00;;;;;23.52;60.96;101553.53;5002800;28;44861;-81
2023/08/21 02:28:39;;;;;;;;;4.50;2.50;;;;;23.54;61.08;101557.97;5003031;28;44784;-81
2023/08/21 02:31:05;;;;;;;;;1.00;1.00;;;;;23.53;61.08;101553.47;5003977;28;44746;-81
2023/08/21 02:33:30;;;;;;;;;4.00;2.25;;;;;23.54;61.02;101554.38;5000733;28;47043;-81
2023/08/21 02:35:59;;;;;;;;;1.75;1.25;;;;;23.62;60.79;101546.91;5019693;28;45120;-81
2023/08/21 02:38:24;;;;;;;;;3.00;2.00;;;;;23.47;60.78;101550.94;5002955;28;45505;-81
2023/08/21 02:40:50;;;;;;;;;2.00;2.00;;;;;23.47;61.32;101552.72;5002011;28;45361;-79
2023/08/21 02:43:16;;;;;;;;;3.50;2.00;;;;;23.44;60.94;101566.41;5002566;28;44963;-79
2023/08/21 02:45:42;;;;;;;;;1.50;1.50;;;;;23.36;61.26;101570.19;5018089;28;45395;-82
2023/08/21 02:48:07;;;;;;;;;2.00;1.25;;;;;23.32;61.48;101567.63;5002491;28;44876;-79
2023/08/21 02:50:33;;;;;;;;;2.75;2.75;;;;;23.30;61.55;101562.22;5003205;28;44756;-79
2023/08/21 02:53:00;;;;;;;;;2.00;1.75;;;;;23.36;61.97;101559.34;5000433;28;47254;-80
2023/08/21 02:55:25;;;;;;;;;2.25;2.25;;;;;23.36;61.48;101566.59;5003274;28;44852;-81
2023/08/21 02:57:51;;;;;;;;;4.25;1.75;;;;;23.30;61.55;101551.34;5001849;28;44762;-82
2023/08/21 03:00:16;;;;;;;;;1.25;1.25;;;;;23.29;61.62;101560.44;5001841;28;44809;-80
2023/08/21 03:02:43;;;;;;;;;2.00;2.00;;;;;23.34;61.71;101555.78;5000538;28;48045;-80
2023/08/21 03:05:10;;;;;;;;;2.00;2.00;;;;;23.33;61.97;101558.56;5002164;28;44694;-80
2023/08/21 03:07:39;;;;;;;;;2.50;2.50;;;;;23.30;61.64;101558.63;5017713;28;44861;-80
2023/08/21 03:10:06;;;;;;;;;2.50;2.00;;;;;23.29;62.05;101563.16;5002752;28;45448;-80
2023/08/21 03:12:32;;;;;;;;;3.00;3.00;;;;;23.25;61.84;101556.03;5001026;28;45297;-81
2023/08/21 03:14:58;;;;;;;;;2.00;2.00;;;;;23.23;62.46;101556.97;5003071;28;45297;-80
2023/08/21 03:17:24;;;;;;;;;4.00;3.00;;;;;23.22;62.77;101561.53;5000522;28;44818;-80
2023/08/21 03:19:49;;;;;;;;;1.00;1.00;;;;;23.16;62.29;101556.25;5001200;28;45373;-82
2023/08/21 03:22:15;;;;;;;;;3.00;2.00;;;;;23.11;62.19;101558.22;5001942;28;46776;-81
2023/08/21 03:24:42;;;;;;;;;2.50;2.50;;;;;23.05;62.31;101551.09;5002837;28;45327;-82
2023/08/21 03:27:07;;;;;;;;;4.00;3.50;;;;;23.03;62.46;101549.38;5002458;28;45408;-83
2023/08/21 03:29:33;;;;;;;;;2.00;2.00;;;;;23.09;62.53;101560.94;5016388;28;45806;-83
2023/08/21 03:31:58;;;;;;;;;3.50;3.00;;;;;23.09;62.75;101568.22;5000783;28;45417;-83
2023/08/21 03:34:24;;;;;;;;;3.75;3.75;;;;;23.06;62.91;101562.84;5000151;28;45591;-83
2023/08/21 03:36:50;;;;;;;;;1.25;0.25;;;;;23.01;62.87;101562.94;5001667;28;45490;-83
2023/08/21 03:39:15;;;;;;;;;2.50;2.50;;;;;22.93;62.65;101576.69;5017448;28;45361;-84
2023/08/21 03:41:43;;;;;;;;;3.00;3.00;;;;;22.88;63.08;101565.03;5002943;28;45301;-84
2023/08/21 03:44:09;;;;;;;;;2.50;2.50;;;;;22.90;63.52;101568.59;5000996;28;45427;-83
2023/08/21 03:46:34;;;;;;;;;3.50;2.25;;;;;22.92;63.59;101574.00;5014823;28;45497;-83
2023/08/21 03:49:01;;;;;;;;;2.00;2.00;;;;;23.02;63.27;101570.16;5000525;28;45451;-83
2023/08/21 03:51:27;;;;;;;;;2.25;2.25;;;;;22.95;63.03;101568.50;4998405;28;48687;-84
2023/08/21 03:53:52;;;;;;;;;1.25;1.25;;;;;22.92;63.23;101568.56;4997525;28;46573;-84
2023/08/21 03:56:19;;;;;;;;;2.00;2.00;;;;;22.88;63.10;101570.47;4998240;28;45484;-84
2023/08/21 03:58:44;;;;;;;;;2.75;1.75;;;;;22.76;63.07;101559.91;5016627;28;45672;-84
2023/08/21 04:01:10;;;;;;;;;2.75;2.75;;;;;22.77;63.52;101564.41;5015137;28;46870;-84
2023/08/21 04:04:31;;;;;;;;;3.00;1.75;;;;;22.88;63.87;101561.44;4983496;28;45404;-84
2023/08/21 04:06:57;;;;;;;;;3.00;2.00;;;;;22.74;63.69;101576.22;5000510;28;44942;-84
2023/08/21 04:09:22;;;;;;;;;3.00;3.00;;;;;22.74;64.08;101575.31;4999727;28;45367;-84
2023/08/21 04:11:48;;;;;;;;;5.00;3.00;;;;;22.70;63.90;101570.88;5000922;28;46194;-83
2023/08/21 04:14:13;;;;;;;;;3.00;3.00;;;;;22.72;63.55;101579.88;5015683;28;45877;-83
2023/08/21 04:16:40;;;;;;;;;2.50;2.50;;;;;22.77;63.68;101570.72;4998143;28;45335;-83
2023/08/21 04:19:06;;;;;;;;;3.00;3.00;;;;;22.64;63.85;101574.63;4998338;28;45603;-84
2023/08/21 04:21:31;;;;;;;;;2.00;2.00;;;;;22.67;63.81;101573.69;4998585;28;47253;-83
2023/08/21 04:23:57;;;;;;;;;2.25;2.25;;;;;22.61;64.58;101581.97;5000355;28;44771;-82
2023/08/21 04:26:22;;;;;;;;;2.00;2.00;;;;;22.57;64.80;101589.28;5001970;28;44754;-82
2023/08/21 04:32:09;;;;;;;;;3.00;3.00;;;;;22.47;64.89;101585.88;5003956;28;44820;-82
2023/08/21 04:34:35;;;;;;;;;4.00;3.00;;;;;22.44;65.07;101580.53;5004742;28;44821;-82
2023/08/21 04:37:01;;;;;;;;;2.25;2.25;;;;;22.47;65.23;101588.56;5002964;28;44814;-82
2023/08/21 04:39:26;;;;;;;;;3.00;3.00;;;;;22.41;65.87;101588.72;5018132;28;44913;-82
2023/08/21 04:41:52;;;;;;;;;3.00;3.00;;;;;22.37;66.11;101587.00;5018927;28;47274;-82
2023/08/21 04:44:18;;;;;;;;;3.50;2.75;;;;;22.36;65.91;101585.22;5002651;28;44772;-82
2023/08/21 04:46:51;;;;;;;;;3.25;3.25;;;;;22.37;66.16;101589.69;5002999;28;44842;-82
2023/08/21 04:49:17;;;;;;;;;6.00;3.00;;;;;22.20;66.26;101599.97;5002949;28;44897;-81
2023/08/21 04:51:42;;;;;;;;;4.00;4.00;;;;;22.16;66.48;101604.56;5001998;28;47210;-84
2023/08/21 04:54:08;;;;;;;;;3.00;3.00;;;;;22.15;67.15;101608.19;5000977;28;45390;-83
2023/08/21 04:56:35;;;;;;;;;3.50;2.50;;;;;22.14;67.12;101601.88;4984986;28;45441;-83
2023/08/21 04:59:00;;;;;;;;;2.00;2.00;;;;;22.01;67.30;101600.34;5001094;28;45444;-83
2023/08/21 05:01:26;;;;;;;;;2.25;2.25;;;;;22.07;67.28;101605.63;5015957;28;46875;-83
2023/08/21 05:03:51;;;;;;;;;5.00;4.00;;;;;22.05;67.32;101612.91;4998587;28;45481;-83
2023/08/21 05:06:17;;;;;;;;;3.00;3.00;;;;;22.01;67.60;101615.69;5018738;28;44873;-80
2023/08/21 05:08:42;;;;;;;;;5.50;4.00;;;;;21.96;67.69;101611.28;5003272;28;45463;-80
2023/08/21 05:11:08;;;;;;;;;3.25;2.00;;;;;21.98;67.51;101603.13;5004242;28;45209;-80
2023/08/21 05:13:34;;;;;;;;;2.75;2.75;;;;;22.01;68.22;101604.88;4987930;28;45016;-79
2023/08/21 05:15:59;;;;;;;;;2.00;2.00;;;;;21.99;68.21;101613.00;5006071;28;45247;-79
2023/08/21 05:18:25;;;;;;;;;4.75;3.00;;;;;21.98;68.86;101605.81;5006103;28;44835;-80
2023/08/21 05:20:56;;;;;;;;;3.50;3.00;;;;;22.03;68.95;101611.16;5006353;28;45157;-80
2023/08/21 05:23:21;;;;;;;;;2.00;2.00;;;;;21.89;68.29;101606.00;5007349;28;44819;-80
2023/08/21 05:25:48;;;;;;;;;3.50;3.50;;;;;21.99;68.56;101618.44;5006520;28;44866;-80
2023/08/21 05:28:14;;;;;;;;;1.00;1.00;;;;;21.93;68.77;101613.13;5007375;28;44814;-80
2023/08/21 05:30:40;;;;;;;;;2.00;2.00;;;;;21.94;68.21;101612.22;5021719;28;47401;-80
2023/08/21 05:33:06;;;;;;;;;3.00;3.00;;;;;21.96;68.22;101615.81;5021776;28;45016;-80
2023/08/21 05:35:35;;;;;;;;;3.25;3.25;;;;;22.01;68.76;101621.13;5007829;28;44814;-80
2023/08/21 05:38:02;;;;;;;;;2.50;2.50;;;;;21.91;68.71;101620.41;5008383;28;45456;-80
2023/08/21 05:40:28;;;;;;;;;3.00;3.00;;;;;21.87;68.42;101618.66;5022869;28;47145;-80
2023/08/21 05:42:54;;;;;;;;;2.50;2.00;;;;;21.89;68.72;101616.81;5022254;28;45033;-80
2023/08/21 05:45:19;;;;;;;;;3.00;3.00;;;;;21.96;68.35;101618.50;5020971;28;45419;-81
2023/08/21 05:47:45;;;;;;;;;3.33;3.33;;;;;22.03;68.47;101620.16;5005645;28;44810;-82
2023/08/21 05:50:14;;;;;;;;;0.00;0.00;;;;;22.21;68.33;101623.44;5003480;28;46869;-82
2023/08/21 05:52:40;;;;;;;;;2.50;2.50;;;;;22.27;67.85;101623.34;5006246;28;45616;-81
2023/08/21 05:55:05;;;;;;;;;3.00;3.00;;;;;22.36;67.18;101623.16;5004293;28;44827;-81
2023/08/21 05:57:32;;;;;;;;;2.00;2.00;;;;;22.52;66.86;101623.72;4987155;28;45417;-82
2023/08/21 05:59:57;;;;;;;;;5.50;4.25;;;;;22.50;67.20;101620.13;5004295;28;45130;-82
2023/08/21 06:02:23;;;;;;;;;4.00;2.25;;;;;22.54;66.75;101622.78;5003082;28;45397;-82
2023/08/21 06:04:49;;;;;;;;;2.75;2.75;;;;;22.66;66.80;101627.03;5002916;28;45488;-82
2023/08/21 06:07:14;;;;;;;;;3.25;2.00;;;;;22.68;66.30;101621.56;5005206;28;45135;-83
2023/08/21 06:09:40;;;;;;;;;3.00;3.00;;;;;22.76;66.37;101628.63;5003719;28;45262;-83
2023/08/21 06:12:05;;;;;;;;;2.75;2.75;;;;;22.87;65.88;101636.50;4987293;28;45290;-83
2023/08/21 06:14:34;;;;;;;;;3.75;3.00;;;;;23.08;66.04;101632.41;5007698;28;45195;-82
2023/08/21 06:17:02;;;;;;;;;2.25;2.00;;;;;23.14;65.31;101628.66;5010007;28;44835;-84
2023/08/21 06:19:29;;;;;;;;;3.00;3.00;;;;;23.24;65.74;101641.09;4975032;28;47094;-83
2023/08/21 06:22:03;;;;;;;;;4.75;3.00;;;;;23.32;64.33;101633.66;5010091;28;44811;-82
2023/08/21 06:24:51;;;;;;;;;2.50;2.50;;;;;23.43;64.50;101646.06;5009085;28;44829;-81
2023/08/21 06:27:22;;;;;;;;;3.00;3.00;;;;;23.40;64.55;101646.16;5008802;28;44809;-82
2023/08/21 06:29:48;;;;;;;;;4.50;4.50;;;;;23.39;64.29;101636.19;5004083;28;45406;-82
2023/08/21 06:32:13;;;;;;;;;3.00;3.00;;;;;23.49;63.83;101635.03;4988788;28;44969;-80
2023/08/21 06:34:45;;;;;;;;;3.75;3.75;;;;;23.70;64.08;101634.50;5004786;28;45439;-81
2023/08/21 06:37:31;;;;;;;;;3.00;3.00;;;;;23.68;63.42;101632.75;5005035;28;45444;-80
2023/08/21 06:39:56;;;;;;;;;3.75;3.00;;;;;23.82;63.36;101636.03;5004601;28;45311;-81
2023/08/21 06:42:21;;;;;;;;;1.75;1.75;;;;;23.94;62.63;101623.94;4986889;28;44832;-80
2023/08/21 06:44:47;;;;;;;;;42.00;34.00;;;;;24.06;62.83;101626.31;5007835;28;45374;-79
2023/08/21 06:47:22;;;;;;;;;3.75;3.75;;;;;24.17;62.14;101624.16;5007040;28;44854;-80
2023/08/21 06:49:47;;;;;;;;;4.00;4.00;;;;;24.30;61.60;101640.16;5005632;28;45386;-81
2023/08/21 06:52:20;;;;;;;;;3.67;3.00;;;;;24.29;61.44;101633.81;4987653;28;44787;-80
2023/08/21 06:54:52;;;;;;;;;2.75;2.75;;;;;24.54;60.94;101635.81;5004398;28;44898;-80
2023/08/21 06:57:18;;;;;;;;;4.75;4.75;;;;;24.50;60.19;101643.22;5004394;28;45264;-80
2023/08/21 07:00:30;;;;;;;;;5.67;4.67;;;;;24.60;59.83;101637.47;4986186;28;47584;-82
2023/08/21 07:02:55;;;;;;;;;2.75;2.00;;;;;24.57;59.80;101637.59;5006997;28;44679;-82
2023/08/21 07:05:21;;;;;;;;;3.50;2.00;;;;;24.55;59.89;101624.91;5007181;28;45420;-85
2023/08/21 07:07:47;;;;;;;;;4.75;4.75;;;;;24.64;59.65;101634.63;4988840;28;45379;-86
2023/08/21 07:10:12;;;;;;;;;2.00;2.00;;;;;24.71;58.66;101632.59;5003319;28;47324;-84
2023/08/21 07:12:38;;;;;;;;;1.00;1.00;;;;;24.74;58.28;101627.97;5005459;28;44827;-84
2023/08/21 07:15:04;;;;;;;;;2.00;2.00;;;;;24.82;58.27;101638.59;5005394;28;44806;-85
2023/08/21 07:17:32;;;;;;;;;3.00;3.00;;;;;24.85;58.32;101633.06;5005044;28;45532;-85
2023/08/21 07:19:57;;;;;;;;;2.00;2.00;;;;;24.91;58.12;101630.16;5005789;28;46865;-85
2023/08/21 07:22:28;;;;;;;;;2.75;2.75;;;;;25.07;57.63;101637.84;5003830;28;45384;-87
2023/08/21 07:24:54;;;;;;;;;4.00;3.50;;;;;24.99;57.69;101640.81;5004040;28;45460;-84
2023/08/21 07:27:19;;;;;;;;;2.25;2.00;;;;;25.07;56.93;101643.28;5005040;28;45405;-86
2023/08/21 07:29:45;;;;;;;;;3.25;2.75;;;;;25.15;57.27;101647.53;4985167;28;48838;-87
2023/08/21 07:32:10;;;;;;;;;1.50;1.50;;;;;25.20;56.86;101649.22;4988073;28;44828;-84
2023/08/21 07:34:39;;;;;;;;;1.50;1.50;;;;;25.28;56.75;101631.72;4988169;28;44948;-86
2023/08/21 07:37:05;;;;;;;;;1.25;1.25;;;;;25.32;56.91;101655.16;5004533;28;45509;-86
2023/08/21 07:39:30;;;;;;;;;4.75;4.75;;;;;25.35;56.76;101662.38;5003177;28;45909;-87
2023/08/21 07:41:56;;;;;;;;;2.00;2.00;;;;;25.43;56.49;101667.53;4987925;28;44751;-87
2023/08/21 07:44:24;;;;;;;;;2.75;2.75;;;;;25.52;56.19;101672.69;5006098;28;45429;-86
2023/08/21 07:46:53;;;;;;;;;2.00;2.00;;;;;25.48;56.16;101660.13;5008174;28;45528;-86
2023/08/21 07:49:25;;;;;;;;;1.50;1.50;;;;;25.40;56.08;101660.38;5027425;28;45416;-84
2023/08/21 07:51:53;;;;;;;;;0.50;0.50;;;;;25.43;56.35;101656.66;5011366;28;45480;-83
2023/08/21 07:54:18;;;;;;;;;3.00;3.00;;;;;25.45;56.27;101657.47;4999930;28;45383;-83
2023/08/21 07:56:45;;;;;;;;;2.50;1.25;;;;;25.49;56.16;101659.16;4986267;28;44967;-86
2023/08/21 07:59:13;;;;;;;;;2.25;2.25;;;;;25.53;55.96;101663.56;5004314;28;47004;-85
2023/08/21 08:01:39;;;;;;;;;2.25;1.25;;;;;25.58;55.81;101649.81;5006372;28;44776;-86
2023/08/21 08:04:10;;;;;;;;;0.75;0.75;;;;;25.58;55.38;101644.38;5161327;22;45222;-86
2023/08/21 08:06:36;;;;;;;;;1.50;1.50;;;;;25.45;55.32;101616.63;5003021;28;46589;-85
2023/08/21 08:09:03;;;;;;;;;2.00;2.00;;;;;25.74;54.92;101656.50;4988430;28;44914;-84
2023/08/21 08:11:29;;;;;;;;;1.75;1.75;;;;;25.85;54.72;101653.41;5009420;28;44829;-83
2023/08/21 08:14:03;;;;;;;;;2.50;2.50;;;;;25.92;54.66;101655.00;4985020;28;44819;-83
2023/08/21 08:16:29;;;;;;;;;0.00;0.00;;;;;26.06;54.56;101651.78;4990446;28;45004;-83
2023/08/21 08:18:55;;;;;;;;;3.00;3.00;;;;;26.16;55.17;101655.97;4989369;28;45190;-85
2023/08/21 08:21:24;;;;;;;;;3.75;1.75;;;;;26.38;54.32;101647.88;5006026;28;44862;-85
2023/08/21 08:23:49;;;;;;;;;2.50;1.75;;;;;26.32;53.91;101659.91;5002463;28;44803;-84
2023/08/21 08:26:16;;;;;;;;;2.00;1.25;;;;;26.26;53.49;101659.25;4999969;28;45448;-84
2023/08/21 08:28:51;;;;;;;;;0.75;0.75;;;;;26.34;52.48;101651.66;4999386;28;45307;-85
2023/08/21 08:31:23;;;;;;;;;1.50;1.50;;;;;26.22;52.21;101655.72;4988169;28;45093;-83
2023/08/21 08:33:48;;;;;;;;;1.25;1.25;;;;;26.08;51.98;101649.91;5004336;28;44772;-82
2023/08/21 08:36:14;;;;;;;;;2.75;1.75;;;;;26.18;52.16;101658.59;5022499;28;45167;-81
2023/08/21 08:38:43;;;;;;;;;1.00;1.00;;;;;26.29;52.43;101648.22;4999816;28;46913;-82
2023/08/21 08:41:46;;;;;;;;;2.00;0.25;;;;;26.39;51.91;101649.63;4983488;28;44846;-81
2023/08/21 08:44:15;;;;;;;;;1.50;1.50;;;;;26.35;52.39;101637.06;4977035;28;45373;-81
2023/08/21 08:46:40;;;;;;;;;4.50;2.75;;;;;26.50;52.13;101651.94;4988491;28;45116;-81
2023/08/21 08:49:06;;;;;;;;;2.00;2.00;;;;;26.58;51.80;101629.88;4982657;28;46764;-82
2023/08/21 08:51:53;;;;;;;;;1.75;1.00;;;;;26.83;51.48;101643.47;4996729;28;44965;-82
2023/08/21 08:54:20;;;;;;;;;2.75;1.75;;;;;26.76;51.74;101631.88;4978639;28;44778;-83
2023/08/21 08:56:46;;;;;;;;;2.75;2.75;;;;;26.86;51.21;101644.19;4999382;28;45189;-82
2023/08/21 08:59:14;;;;;;;;;2.00;0.75;;;;;26.92;50.65;101646.72;5001773;28;44862;-81
2023/08/21 09:01:41;;;;;;;;;2.67;2.00;;;;;26.89;50.09;101635.91;4995632;28;45163;-82
2023/08/21 09:09:12;;;;;;;;;0.25;0.25;;;;;26.86;50.03;101629.69;4975701;28;45581;-82
2023/08/21 09:11:50;;;;;;;;;1.50;0.25;;;;;26.76;50.32;101610.03;4895392;29;45068;-81
2023/08/21 09:14:30;;;;;;;;;2.00;2.00;;;;;27.04;49.75;101630.78;4904083;28;45399;-81
2023/08/21 09:17:05;;;;;;;;;0.25;0.25;;;;;27.05;49.76;101632.56;4896450;29;45398;-82
2023/08/21 09:19:34;;;;;;;;;0.33;0.33;;;;;27.01;48.33;101633.66;4906521;29;44916;-82
2023/08/21 09:22:11;;;;;;;;;1.25;1.25;;;;;26.96;48.83;101639.28;4892653;29;47011;-81
2023/08/21 09:24:41;;;;;;;;;0.25;0.25;;;;;26.85;47.90;101626.06;4891303;29;46194;-82
2023/08/21 09:27:15;;;;;;;;;0.25;0.25;;;;;26.88;49.38;101616.84;4904211;29;44900;-82
2023/08/21 09:29:54;;;;;;;;;0.25;0.25;;;;;26.99;49.19;101632.81;4905454;29;45515;-82
2023/08/21 09:32:28;;;;;;;;;2.50;2.50;;;;;26.99;48.46;101628.25;4886562;29;46887;-81
2023/08/21 09:34:54;;;;;;;;;1.50;1.50;;;;;26.64;49.05;101588.69;4905489;29;45369;-82
2023/08/21 09:37:34;;;;;;;;;0.00;0.00;;;;;26.93;48.89;101617.56;4910415;29;45331;-81
2023/08/21 09:40:07;;;;;;;;;2.25;2.00;;;;;26.92;48.76;101597.59;4911962;29;44794;-81
2023/08/21 09:45:55;;;;;;;;;1.75;1.75;;;;;26.90;48.87;101596.72;4925188;28;44735;-82
2023/08/21 09:49:22;;;;;;;;;1.00;0.00;;;;;27.03;48.93;101580.75;4987340;28;45345;-82
2023/08/21 09:51:54;;;;;;;;;1.00;1.00;;;;;26.96;48.46;101567.41;4864685;29;45308;-81
2023/08/21 09:54:36;;;;;;;;;;;;;;;;;;;;;
2023/08/21 09:57:05;;;;;;;;;0.25;0.25;;;;;27.06;48.51;101591.53;4868592;29;71903;-80
2023/08/21 09:59:43;;;;;;;;;4.25;0.75;;;;;27.10;48.39;101598.63;4868654;29;45594;-81
2023/08/21 10:03:07;;;;;;;;;;;;;;;;;;;;;
2023/08/21 10:06:38;;;;;;;;;;;;;;;;;;;;;
2023/08/21 10:12:40;;;;;;;;;1.00;1.00;;;;;27.58;47.74;101615.78;4869703;29;44901;-81
2023/08/21 10:15:09;;;;;;;;;2.25;2.00;;;;;27.50;47.97;101583.31;4875295;29;44941;-82
2023/08/21 10:17:43;;;;;;;;;0.75;0.75;;;;;27.50;48.14;101577.88;4871632;29;45124;-81
2023/08/21 10:20:11;;;;;;;;;1.25;1.25;;;;;27.63;47.25;101602.81;4889675;29;44911;-80
2023/08/21 10:22:52;;;;;;;;;1.00;1.00;;;;;27.57;47.26;101594.91;4901238;29;44895;-81
2023/08/21 12:03:54;;;;;;;;;1.25;1.25;;;;;28.23;45.08;101511.75;5144214;23;45875;-84
2023/08/21 12:07:04;;;;;;;;;0.00;0.00;;;;;28.35;44.73;101513.88;4856779;29;44954;-84
2023/08/21 12:12:39;;;;;;;;;;;;;;;;;;;;;
2023/08/21 12:50:39;;;;;;;;;;;;;;;;;;;;;
2023/08/21 12:57:16;;;;;;;;;;;;;;;;;;;;;
2023/08/21 13:10:09;;;;;;;;;0.00;0.00;;;;;28.96;41.61;101468.03;4853552;29;44992;-83
2023/08/21 13:12:35;;;;;;;;;0.00;0.00;;;;;28.97;42.57;101486.25;4834236;29;45476;-81
2023/08/21 13:15:06;;;;;;;;;1.00;0.75;;;;;28.93;42.54;101467.22;4834625;29;48557;-82
2023/08/21 13:17:35;;;;;;;;;1.00;1.00;;;;;29.08;42.08;101486.56;4832258;29;44851;-81
2023/08/21 13:28:04;;;;;;;;;0.00;0.00;;;;;29.15;41.83;101468.88;4933756;28;45279;-82
2023/08/21 14:23:52;;;;;;;;;0.00;0.00;;;;;42.06;30.28;101376.22;5008889;23;45743;-85
2023/08/21 14:42:09;;;;;;;;;;;;;;;;;;;;;
2023/08/21 15:39:59;;;;;;;;;0.00;0.00;;;;;35.43;28.83;101314.31;5944638;23;47015;-85
2023/08/21 15:42:44;;;;;;;;;;;;;;;;;;;;;
2023/08/21 17:31:38;;;;;;;;;0.00;0.00;;;;;30.11;37.22;101267.97;5780100;23;46823;-81
2023/08/21 17:34:04;;;;;;;;;0.00;0.00;;;;;29.97;37.22;101262.44;4908499;29;45542;-83
2023/08/21 17:36:29;;;;;;;;;1.00;0.00;;;;;29.85;37.21;101244.84;4907561;29;44912;-80
2023/08/21 17:38:55;;;;;;;;;0.00;0.00;;;;;29.90;37.24;101266.53;4909633;28;44795;-81
2023/08/21 17:41:20;;;;;;;;;1.00;0.00;;;;;29.75;37.48;101246.34;4909509;29;44847;-81
2023/08/21 17:43:46;;;;;;;;;0.50;0.00;;;;;29.86;37.37;101279.53;4908876;28;46872;-82
2023/08/21 17:46:17;;;;;;;;;0.00;0.00;;;;;29.78;37.16;101259.91;4890357;29;44811;-82
2023/08/21 17:48:44;;;;;;;;;0.00;0.00;;;;;29.54;37.52;101225.66;4907849;29;44909;-82
2023/08/21 17:51:10;;;;;;;;;0.00;0.00;;;;;29.70;37.22;101259.44;4908483;29;44827;-82
2023/08/21 17:53:39;;;;;;;;;0.00;0.00;;;;;29.49;37.42;101228.63;4889562;29;48761;-82
2023/08/21 17:56:05;;;;;;;;;0.00;0.00;;;;;29.47;37.52;101230.59;4904877;29;44932;-81
2023/08/21 17:58:32;;;;;;;;;0.00;0.00;;;;;29.71;37.73;101269.44;4908693;29;44801;-85
2023/08/21 18:00:58;;;;;;;;;0.00;0.00;;;;;29.37;37.97;101235.72;4889477;29;44940;-85
2023/08/21 18:03:23;;;;;;;;;0.25;0.25;;;;;29.42;37.80;101254.66;4907155;29;46874;-84
2023/08/21 18:05:54;;;;;;;;;0.00;0.00;;;;;29.63;37.74;101279.94;4908481;29;44844;-82
2023/08/21 18:08:23;;;;;;;;;0.00;0.00;;;;;29.32;37.98;101238.72;4890694;29;44808;-82
2023/08/21 18:10:51;;;;;;;;;0.50;0.00;;;;;29.43;38.15;101272.84;4907937;29;44841;-83
2023/08/21 18:13:17;;;;;;;;;0.00;0.00;;;;;29.30;38.75;101259.84;4906912;28;47662;-81
2023/08/21 18:15:42;;;;;;;;;0.00;0.00;;;;;29.17;38.95;101267.00;4891241;29;45160;-80
2023/08/21 18:18:08;;;;;;;;;0.00;0.00;;;;;29.05;39.25;101257.56;4906814;28;44772;-81
2023/08/21 18:20:51;;;;;;;;;0.00;0.00;;;;;29.25;39.03;101270.19;4908018;29;44755;-81
2023/08/21 18:23:31;;;;;;;;;1.00;1.00;;;;;29.06;39.34;101252.97;4907320;29;47403;-81
2023/08/21 18:26:01;;;;;;;;;0.00;0.00;;;;;29.14;38.96;101272.63;4908584;29;44759;-81
2023/08/21 18:28:27;;;;;;;;;1.00;0.00;;;;;28.99;38.81;101281.66;4907241;29;44763;-81
2023/08/21 18:30:55;;;;;;;;;0.00;0.00;;;;;28.92;39.31;101260.09;4909672;29;44799;-81
2023/08/21 18:33:22;;;;;;;;;0.00;0.00;;;;;28.84;39.08;101270.56;4908489;28;45529;-81
2023/08/21 18:35:48;;;;;;;;;0.50;0.50;;;;;28.89;39.51;101273.94;4909274;29;44824;-82